VRMM

Malé International Airport

Malé, Maldives
TAF VRMM 242300Z 2500/2606 26012KT 9999 FEW017TCU TEMPO 2500/2506 5000 -SHRA FEW017CB
Issued Valid From Valid To
Sep-24 @ 23:00 UTC
(3 hours ago)
Sep-25 @ 00:00 UTC
(2 hours ago)
Sep-26 @ 06:00 UTC
(-1 days ago)
Sep-25 @ 00:00 to Sep-26 @ 06:00
TAF VRMM 242300Z 2500/2606 26012KT 9999 FEW017TCU
Wind Visibility Clouds
260° at 12 knots 10,000+ meters
  • Few at 1,700' AGL
Temporary Sep-25 @ 00:00 to Sep-25 @ 06:00
TEMPO 2500/2506 5000 -SHRA FEW017CB
Visibility Clouds Conditions
5,005 meters
  • Few at 1,700' AGL
  • Light Rain
TAF VRMM 242300Z 2500/2606 26012KT 9999 FEW017TCU TEMPO 2500/2506 5000 -SHRA FEW017CB
Issued Sep-24 @ 23:00 UTC
(3 hours ago)
Valid From Sep-25 @ 00:00 UTC
(2 hours ago)
Valid To Sep-26 @ 06:00 UTC
(-1 days ago)
Sep-25 @ 00:00 - Sep-26 @ 06:00
Wind Visibility
260° at 12 knots 10,000+ meters
Clouds
  • Few at 1,700' AGL
Temporary Sep-25 @ 00:00 - Sep-25 @ 06:00
Clouds
  • Few at 1,700' AGL
Conditions
  • Light Rain